createdAt,value
2019-03-25T00:00:11.692Z,0.00
2019-03-25T00:01:11.555Z,0.00
2019-03-25T00:02:11.426Z,0.00
2019-03-25T00:03:11.296Z,0.00
2019-03-25T00:04:11.166Z,0.00
2019-03-25T00:05:11.039Z,0.00
2019-03-25T00:06:10.907Z,0.00
2019-03-25T00:07:10.777Z,0.00
2019-03-25T00:08:10.649Z,0.00
2019-03-25T00:09:10.516Z,0.00
2019-03-25T00:10:10.387Z,0.00
2019-03-25T00:11:10.259Z,0.00
2019-03-25T00:12:10.127Z,0.00
2019-03-25T00:13:10.004Z,0.00
2019-03-25T00:14:09.867Z,0.00
2019-03-25T00:15:09.739Z,0.00
2019-03-25T00:16:09.610Z,0.00
2019-03-25T00:17:09.479Z,0.00
2019-03-25T00:18:09.350Z,0.00
2019-03-25T00:19:09.221Z,0.00
2019-03-25T00:20:09.086Z,0.00
2019-03-25T00:21:08.958Z,0.00
2019-03-25T00:22:08.838Z,0.00
2019-03-25T00:23:08.699Z,0.00
2019-03-25T00:24:08.566Z,0.00
2019-03-25T00:25:08.435Z,0.00
2019-03-25T00:26:08.309Z,0.00
2019-03-25T00:27:08.178Z,0.00
2019-03-25T00:28:08.044Z,0.00
2019-03-25T00:29:07.916Z,0.00
2019-03-25T00:30:07.796Z,0.00
2019-03-25T00:31:07.662Z,0.00
2019-03-25T00:32:07.526Z,0.00
2019-03-25T00:33:07.396Z,0.00
2019-03-25T00:34:07.265Z,0.00
2019-03-25T00:35:07.132Z,0.00
2019-03-25T00:36:07.002Z,0.00
2019-03-25T00:37:06.872Z,0.00
2019-03-25T00:38:06.740Z,0.00
2019-03-25T00:39:06.617Z,0.00
2019-03-25T00:40:06.485Z,0.00
2019-03-25T00:41:06.363Z,0.00
2019-03-25T00:42:06.220Z,0.00
2019-03-25T00:43:06.088Z,0.00
2019-03-25T00:44:05.961Z,0.00
2019-03-25T00:45:05.826Z,0.00
2019-03-25T00:46:05.695Z,0.00
2019-03-25T00:47:05.567Z,0.00
2019-03-25T00:48:05.435Z,0.00
2019-03-25T00:49:05.303Z,0.00
2019-03-25T00:50:05.178Z,0.00
2019-03-25T00:51:05.044Z,0.00
2019-03-25T00:52:04.912Z,0.00
2019-03-25T00:53:04.786Z,0.00
2019-03-25T00:54:04.652Z,0.00
2019-03-25T00:55:04.523Z,0.00
2019-03-25T00:56:04.391Z,0.00
2019-03-25T00:57:04.265Z,0.00
2019-03-25T00:58:04.128Z,0.00
2019-03-25T00:59:04.010Z,0.00
2019-03-25T01:00:03.870Z,0.00
2019-03-25T01:01:03.793Z,0.00
2019-03-25T01:02:03.606Z,0.00
2019-03-25T01:03:03.476Z,0.00
2019-03-25T01:04:03.355Z,0.00
2019-03-25T01:05:03.215Z,0.00
2019-03-25T01:06:03.086Z,0.00
2019-03-25T01:07:02.961Z,0.00
2019-03-25T01:08:02.822Z,0.00
2019-03-25T01:09:02.694Z,0.00
2019-03-25T01:10:02.562Z,0.00
2019-03-25T01:11:02.434Z,0.00
2019-03-25T01:12:02.305Z,0.00
2019-03-25T01:13:02.174Z,0.00
2019-03-25T01:14:02.041Z,0.00
2019-03-25T01:15:01.911Z,0.00
2019-03-25T01:16:01.779Z,0.00
2019-03-25T01:17:01.648Z,0.00
2019-03-25T01:18:01.519Z,0.00
2019-03-25T01:19:01.389Z,0.00
2019-03-25T01:20:01.258Z,0.00
2019-03-25T01:21:01.131Z,0.00
2019-03-25T01:22:00.995Z,0.00
2019-03-25T01:23:00.864Z,0.00
2019-03-25T01:24:00.734Z,0.00
2019-03-25T01:25:02.054Z,0.00
2019-03-25T01:26:00.470Z,0.00
2019-03-25T01:27:00.347Z,0.00
2019-03-25T01:28:00.208Z,0.00
2019-03-25T01:29:00.078Z,0.00
2019-03-25T01:29:59.949Z,0.00
2019-03-25T01:30:59.820Z,0.00
2019-03-25T01:31:59.686Z,0.00
2019-03-25T01:32:59.555Z,0.00
2019-03-25T01:33:59.425Z,0.00
2019-03-25T01:34:59.294Z,0.00
2019-03-25T01:35:59.163Z,0.00
2019-03-25T01:36:59.035Z,0.00
2019-03-25T01:37:58.900Z,0.00
2019-03-25T01:38:58.770Z,0.00
2019-03-25T01:39:58.674Z,0.00
2019-03-25T01:40:58.509Z,0.00
2019-03-25T01:41:58.377Z,0.00
2019-03-25T01:42:58.248Z,0.00
2019-03-25T01:43:58.114Z,0.00
2019-03-25T01:44:57.984Z,0.00
2019-03-25T01:45:57.855Z,0.00
2019-03-25T01:46:57.722Z,0.00
2019-03-25T01:47:57.591Z,0.00
2019-03-25T01:48:57.463Z,0.00
2019-03-25T01:49:57.330Z,0.00
2019-03-25T01:50:57.197Z,0.00
2019-03-25T01:51:57.067Z,0.00
2019-03-25T01:52:56.940Z,0.00
2019-03-25T01:53:56.805Z,0.00
2019-03-25T01:54:56.675Z,0.00
2019-03-25T01:55:56.553Z,0.00
2019-03-25T01:56:56.411Z,0.00
2019-03-25T01:57:56.281Z,0.00
2019-03-25T01:58:56.151Z,0.00
2019-03-25T01:59:56.018Z,0.00
2019-03-25T02:00:55.891Z,0.00
2019-03-25T02:01:55.759Z,0.00
2019-03-25T02:02:55.629Z,0.00
2019-03-25T02:03:55.493Z,0.00
2019-03-25T02:04:55.362Z,0.00
2019-03-25T02:05:55.238Z,0.00
2019-03-25T02:06:55.102Z,0.00
2019-03-25T02:07:54.970Z,0.00
2019-03-25T02:08:54.841Z,0.00
2019-03-25T02:09:54.714Z,0.00
2019-03-25T02:10:54.578Z,0.00
2019-03-25T02:11:54.446Z,0.00
2019-03-25T02:12:54.315Z,0.00
2019-03-25T02:13:54.185Z,0.00
2019-03-25T02:14:54.057Z,0.00
2019-03-25T02:15:53.922Z,0.00
2019-03-25T02:16:53.792Z,0.00
2019-03-25T02:17:53.661Z,0.00
2019-03-25T02:18:53.528Z,0.00
2019-03-25T02:19:53.397Z,0.00
2019-03-25T02:20:53.268Z,0.00
2019-03-25T02:21:53.140Z,0.00
2019-03-25T02:22:53.103Z,0.00
2019-03-25T02:23:52.877Z,0.00
2019-03-25T02:24:52.743Z,0.00
2019-03-25T02:25:52.617Z,0.00
2019-03-25T02:26:52.482Z,0.00
2019-03-25T02:27:52.348Z,0.00
2019-03-25T02:28:52.217Z,0.00
2019-03-25T02:29:52.093Z,0.00
2019-03-25T02:30:51.961Z,0.00
2019-03-25T02:31:51.828Z,0.00
2019-03-25T02:32:51.697Z,0.00
2019-03-25T02:33:51.564Z,0.00
2019-03-25T02:34:51.437Z,0.00
2019-03-25T02:35:51.301Z,0.00
2019-03-25T02:36:51.172Z,0.00
2019-03-25T02:37:51.040Z,0.00
2019-03-25T02:38:50.910Z,0.00
2019-03-25T02:39:50.778Z,0.00
2019-03-25T02:40:50.654Z,0.00
2019-03-25T02:41:50.519Z,0.00
2019-03-25T02:42:50.386Z,0.00
2019-03-25T02:43:50.254Z,0.00
2019-03-25T02:44:50.125Z,0.00
2019-03-25T02:45:49.992Z,0.00
2019-03-25T02:46:49.857Z,0.00
2019-03-25T02:47:49.728Z,0.00
2019-03-25T02:48:49.597Z,0.00
2019-03-25T02:49:49.464Z,0.00
2019-03-25T02:50:49.335Z,0.00
2019-03-25T02:51:49.203Z,0.00
2019-03-25T02:52:49.072Z,0.00
2019-03-25T02:53:48.940Z,0.00
2019-03-25T02:54:48.811Z,0.00
2019-03-25T02:55:48.678Z,0.00
2019-03-25T02:56:48.547Z,0.00
2019-03-25T02:57:48.416Z,0.00
2019-03-25T02:58:48.288Z,0.00
2019-03-25T02:59:48.156Z,0.00
2019-03-25T03:00:48.028Z,0.00
2019-03-25T03:01:47.893Z,0.00
2019-03-25T03:02:47.762Z,0.00
2019-03-25T03:03:47.628Z,0.00
2019-03-25T03:04:47.498Z,0.00
2019-03-25T03:05:47.369Z,0.00
2019-03-25T03:06:47.234Z,0.00
2019-03-25T03:07:47.108Z,0.00
2019-03-25T03:08:47.605Z,0.00
2019-03-25T03:09:46.845Z,0.00
2019-03-25T03:10:46.727Z,0.00
2019-03-25T03:11:46.594Z,0.00
2019-03-25T03:12:46.448Z,0.00
2019-03-25T03:13:46.322Z,0.00
2019-03-25T03:14:46.185Z,0.00
2019-03-25T03:15:46.056Z,0.00
2019-03-25T03:16:45.934Z,0.00
2019-03-25T03:17:45.796Z,0.00
2019-03-25T03:18:45.660Z,0.00
2019-03-25T03:19:45.539Z,0.00
2019-03-25T03:20:45.408Z,0.00
2019-03-25T03:21:45.277Z,0.00
2019-03-25T03:22:45.138Z,0.00
2019-03-25T03:23:45.003Z,0.00
2019-03-25T03:24:44.872Z,0.00
2019-03-25T03:25:56.453Z,0.00
2019-03-25T03:26:44.609Z,0.00
2019-03-25T03:27:44.480Z,0.00
2019-03-25T03:28:44.347Z,0.00
2019-03-25T03:29:44.216Z,0.00
2019-03-25T03:30:44.085Z,0.00
2019-03-25T03:31:43.962Z,0.00
2019-03-25T03:32:43.825Z,0.00
2019-03-25T03:33:43.689Z,0.00
2019-03-25T03:34:43.562Z,0.00
2019-03-25T03:35:46.307Z,0.00
2019-03-25T03:36:43.304Z,0.00
2019-03-25T03:37:43.185Z,0.00
2019-03-25T03:38:43.057Z,0.00
2019-03-25T03:39:42.900Z,0.00
2019-03-25T03:40:42.776Z,0.00
2019-03-25T03:41:42.643Z,0.00
2019-03-25T03:42:42.519Z,0.00
2019-03-25T03:43:42.377Z,0.00
2019-03-25T03:44:42.246Z,0.00
2019-03-25T03:45:42.116Z,0.00
2019-03-25T03:46:41.993Z,0.00
2019-03-25T03:47:41.853Z,0.00
2019-03-25T03:48:41.720Z,0.00
2019-03-25T03:49:41.589Z,0.00
2019-03-25T03:50:41.460Z,0.00
2019-03-25T03:51:41.323Z,0.00
2019-03-25T03:52:41.198Z,0.00
2019-03-25T03:53:41.061Z,0.00
2019-03-25T03:54:40.930Z,0.00
2019-03-25T03:55:40.800Z,0.00
2019-03-25T03:56:40.667Z,0.00
2019-03-25T03:57:40.536Z,0.00
2019-03-25T03:58:40.404Z,0.00
2019-03-25T03:59:40.271Z,0.00
2019-03-25T04:00:40.141Z,0.00
2019-03-25T04:01:40.010Z,0.00
2019-03-25T04:02:39.879Z,0.00
2019-03-25T04:03:39.744Z,0.00
2019-03-25T04:04:39.628Z,0.00
2019-03-25T04:05:39.486Z,0.00
2019-03-25T04:06:39.352Z,0.00
2019-03-25T04:07:39.220Z,0.00
2019-03-25T04:08:39.088Z,0.00
2019-03-25T04:09:38.960Z,0.00
2019-03-25T04:10:38.824Z,0.00
2019-03-25T04:11:38.692Z,0.00
2019-03-25T04:12:38.563Z,0.00
2019-03-25T04:13:38.430Z,0.00
2019-03-25T04:14:38.303Z,0.00
2019-03-25T04:15:38.165Z,0.00
2019-03-25T04:16:38.038Z,0.00
2019-03-25T04:17:37.908Z,0.00
2019-03-25T04:18:37.771Z,0.00
2019-03-25T04:19:37.641Z,0.00
2019-03-25T04:20:37.508Z,0.00
2019-03-25T04:21:37.390Z,0.00
2019-03-25T04:22:37.247Z,0.00
2019-03-25T04:23:37.113Z,0.00
2019-03-25T04:24:36.982Z,0.00
2019-03-25T04:25:36.854Z,0.00
2019-03-25T04:26:36.721Z,0.00
2019-03-25T04:27:36.595Z,0.00
2019-03-25T04:28:36.454Z,0.00
2019-03-25T04:29:36.327Z,0.00
2019-03-25T04:30:36.194Z,0.00
2019-03-25T04:31:36.060Z,0.00
2019-03-25T04:32:35.928Z,0.00
2019-03-25T04:33:35.796Z,0.00
2019-03-25T04:34:35.664Z,0.00
2019-03-25T04:35:35.537Z,0.00
2019-03-25T04:36:35.402Z,0.00
2019-03-25T04:37:35.268Z,0.00
2019-03-25T04:38:35.137Z,0.00
2019-03-25T04:39:35.006Z,0.00
2019-03-25T04:40:34.874Z,0.00
2019-03-25T04:41:34.742Z,0.00
2019-03-25T04:42:34.610Z,0.00
2019-03-25T04:43:34.480Z,0.00
2019-03-25T04:44:34.349Z,0.00
2019-03-25T04:45:34.222Z,0.00
2019-03-25T04:46:34.083Z,0.00
2019-03-25T04:47:33.948Z,0.00
2019-03-25T04:48:33.820Z,0.00
2019-03-25T04:49:33.688Z,0.00
2019-03-25T04:50:33.559Z,0.00
2019-03-25T04:51:33.424Z,0.00
2019-03-25T04:52:33.291Z,0.00
2019-03-25T04:53:33.162Z,0.00
2019-03-25T04:54:33.033Z,0.00
2019-03-25T04:55:32.900Z,0.00
2019-03-25T04:56:39.642Z,0.00
2019-03-25T04:57:32.679Z,0.00
2019-03-25T04:58:32.509Z,0.00
2019-03-25T04:59:32.371Z,0.00
2019-03-25T05:00:32.236Z,0.00
2019-03-25T05:01:32.106Z,0.00
2019-03-25T05:02:31.976Z,0.00
2019-03-25T05:03:31.843Z,0.00
2019-03-25T05:04:31.751Z,0.00
2019-03-25T05:05:31.580Z,0.00
2019-03-25T05:06:31.448Z,0.00
2019-03-25T05:07:31.323Z,0.00
2019-03-25T05:08:31.184Z,0.00
2019-03-25T05:09:31.052Z,0.00
2019-03-25T05:10:30.922Z,0.00
2019-03-25T05:11:31.112Z,0.00
2019-03-25T05:12:30.658Z,0.00
2019-03-25T05:13:30.524Z,0.00
2019-03-25T05:14:30.396Z,0.00
2019-03-25T05:15:30.269Z,0.00
2019-03-25T05:16:30.139Z,0.00
2019-03-25T05:17:30.008Z,0.00
2019-03-25T05:18:29.873Z,5.63
2019-03-25T05:19:29.735Z,5.63
2019-03-25T05:20:29.606Z,5.63
2019-03-25T05:21:29.474Z,5.63
2019-03-25T05:22:29.343Z,5.63
2019-03-25T05:23:29.210Z,5.63
2019-03-25T05:24:29.080Z,5.63
2019-03-25T05:25:28.945Z,5.63
2019-03-25T05:26:28.815Z,5.63
2019-03-25T05:27:28.689Z,5.63
2019-03-25T05:28:28.550Z,5.63
2019-03-25T05:29:28.421Z,11.25
2019-03-25T05:30:28.294Z,11.25
2019-03-25T05:31:28.158Z,11.25
2019-03-25T05:32:28.027Z,11.25
2019-03-25T05:33:27.896Z,11.25
2019-03-25T05:34:27.763Z,11.25
2019-03-25T05:35:27.632Z,11.25
2019-03-25T05:36:27.499Z,11.25
2019-03-25T05:37:27.370Z,16.88
2019-03-25T05:38:27.237Z,16.88
2019-03-25T05:39:27.106Z,16.88
2019-03-25T05:40:26.972Z,16.88
2019-03-25T05:41:26.840Z,16.88
2019-03-25T05:42:26.713Z,16.88
2019-03-25T05:43:26.577Z,16.88
2019-03-25T05:44:26.451Z,16.88
2019-03-25T05:45:26.313Z,22.50
2019-03-25T05:46:26.184Z,22.50
2019-03-25T05:47:26.049Z,22.50
2019-03-25T05:48:26.193Z,22.50
2019-03-25T05:49:25.787Z,22.50
2019-03-25T05:50:25.657Z,22.50
2019-03-25T05:51:25.528Z,22.50
2019-03-25T05:52:25.409Z,28.13
2019-03-25T05:53:25.264Z,28.13
2019-03-25T05:54:25.127Z,28.13
2019-03-25T05:55:24.999Z,28.13
2019-03-25T05:56:24.865Z,28.13
2019-03-25T05:57:24.734Z,28.13
2019-03-25T05:58:24.709Z,28.13
2019-03-25T05:59:24.478Z,33.75
2019-03-25T06:00:24.342Z,33.75
2019-03-25T06:01:24.210Z,33.75
2019-03-25T06:02:24.078Z,33.75
2019-03-25T06:03:23.943Z,33.75
2019-03-25T06:04:23.817Z,39.38
2019-03-25T06:05:23.685Z,39.38
2019-03-25T06:06:23.550Z,39.38
2019-03-25T06:07:23.431Z,45.00
2019-03-25T06:08:23.291Z,45.00
2019-03-25T06:09:23.157Z,45.00
2019-03-25T06:10:23.028Z,45.00
2019-03-25T06:11:22.895Z,45.00
2019-03-25T06:12:22.764Z,50.63
2019-03-25T06:13:22.633Z,56.25
2019-03-25T06:14:22.501Z,56.25
2019-03-25T06:15:22.370Z,56.25
2019-03-25T06:16:22.244Z,50.63
2019-03-25T06:17:22.107Z,56.25
2019-03-25T06:18:22.848Z,61.88
2019-03-25T06:19:21.853Z,61.88
2019-03-25T06:20:21.715Z,56.25
2019-03-25T06:21:21.582Z,56.25
2019-03-25T06:22:21.456Z,56.25
2019-03-25T06:23:21.322Z,56.25
2019-03-25T06:24:21.198Z,56.25
2019-03-25T06:25:21.063Z,56.25
2019-03-25T06:26:20.935Z,56.25
2019-03-25T06:27:20.797Z,56.25
2019-03-25T06:28:20.672Z,56.25
2019-03-25T06:29:20.539Z,61.88
2019-03-25T06:30:20.411Z,56.25
2019-03-25T06:31:20.286Z,50.63
2019-03-25T06:32:20.149Z,56.25
2019-03-25T06:33:20.015Z,56.25
2019-03-25T06:34:19.887Z,56.25
2019-03-25T06:35:19.753Z,61.88
2019-03-25T06:36:19.624Z,61.88
2019-03-25T06:37:19.493Z,67.50
2019-03-25T06:38:19.367Z,67.50
2019-03-25T06:39:19.231Z,67.50
2019-03-25T06:40:19.102Z,67.50
2019-03-25T06:41:18.971Z,61.88
2019-03-25T06:42:18.843Z,67.50
2019-03-25T06:43:18.716Z,78.75
2019-03-25T06:44:18.582Z,78.75
2019-03-25T06:45:18.449Z,73.13
2019-03-25T06:46:18.323Z,78.75
2019-03-25T06:47:18.190Z,84.38
2019-03-25T06:48:18.076Z,90.00
2019-03-25T06:49:17.931Z,90.00
2019-03-25T06:50:17.800Z,90.00
2019-03-25T06:51:17.671Z,90.00
2019-03-25T06:52:17.542Z,90.00
2019-03-25T06:53:17.410Z,90.00
2019-03-25T06:54:17.287Z,95.63
2019-03-25T06:55:17.154Z,101.25
2019-03-25T06:56:17.020Z,106.88
2019-03-25T06:57:25.236Z,101.25
2019-03-25T06:58:16.765Z,101.25
2019-03-25T06:59:16.629Z,106.88
2019-03-25T07:00:16.498Z,118.13
2019-03-25T07:01:16.372Z,112.50
2019-03-25T07:02:16.240Z,106.88
2019-03-25T07:03:16.108Z,106.88
2019-03-25T07:04:15.983Z,118.13
2019-03-25T07:05:15.851Z,118.13
2019-03-25T07:06:15.723Z,118.13
2019-03-25T07:07:15.592Z,118.13
2019-03-25T07:08:15.460Z,118.13
2019-03-25T07:09:15.330Z,118.13
2019-03-25T07:10:15.202Z,112.50
2019-03-25T07:11:15.070Z,106.88
2019-03-25T07:12:14.944Z,112.50
2019-03-25T07:13:14.812Z,112.50
2019-03-25T07:14:14.706Z,112.50
2019-03-25T07:15:14.558Z,112.50
2019-03-25T07:16:14.432Z,118.13
2019-03-25T07:17:14.293Z,123.75
2019-03-25T07:18:14.163Z,123.75
2019-03-25T07:19:14.040Z,118.13
2019-03-25T07:20:13.904Z,118.13
2019-03-25T07:21:13.776Z,112.50
2019-03-25T07:22:13.647Z,112.50
2019-03-25T07:23:13.519Z,106.88
2019-03-25T07:24:13.387Z,106.88
2019-03-25T07:25:13.262Z,112.50
2019-03-25T07:26:13.132Z,129.38
2019-03-25T07:27:13.003Z,135.00
2019-03-25T07:28:12.869Z,135.00
2019-03-25T07:29:12.740Z,129.38
2019-03-25T07:30:12.613Z,118.13
2019-03-25T07:31:12.481Z,123.75
2019-03-25T07:32:12.354Z,129.38
2019-03-25T07:33:12.222Z,129.38
2019-03-25T07:34:12.095Z,129.38
2019-03-25T07:35:11.963Z,135.00
2019-03-25T07:36:11.841Z,118.13
2019-03-25T07:37:11.712Z,123.75
2019-03-25T07:38:11.577Z,129.38
2019-03-25T07:39:11.445Z,140.63
2019-03-25T07:40:11.319Z,135.00
2019-03-25T07:41:11.192Z,140.63
2019-03-25T07:42:11.061Z,151.88
2019-03-25T07:43:10.927Z,157.50
2019-03-25T07:44:10.803Z,157.50
2019-03-25T07:45:10.672Z,151.88
2019-03-25T07:46:10.542Z,146.25
2019-03-25T07:47:10.411Z,146.25
2019-03-25T07:48:10.283Z,151.88
2019-03-25T07:49:10.152Z,146.25
2019-03-25T07:50:10.024Z,135.00
2019-03-25T07:51:09.896Z,129.38
2019-03-25T07:52:09.769Z,129.38
2019-03-25T07:53:09.640Z,118.13
2019-03-25T07:54:09.526Z,112.50
2019-03-25T07:55:09.380Z,106.88
2019-03-25T07:56:09.250Z,118.13
2019-03-25T07:57:11.604Z,146.25
2019-03-25T07:58:08.993Z,151.88
2019-03-25T07:59:08.894Z,140.63
2019-03-25T08:00:13.562Z,168.75
2019-03-25T08:01:08.603Z,157.50
2019-03-25T08:02:08.475Z,163.13
2019-03-25T08:03:08.357Z,180.00
2019-03-25T08:04:08.246Z,185.63
2019-03-25T08:05:08.101Z,180.00
2019-03-25T08:06:07.960Z,213.75
2019-03-25T08:07:07.852Z,236.25
2019-03-25T08:08:07.725Z,258.75
2019-03-25T08:09:07.595Z,236.25
2019-03-25T08:10:07.462Z,253.13
2019-03-25T08:11:07.315Z,241.88
2019-03-25T08:12:07.189Z,219.38
2019-03-25T08:13:07.115Z,185.63
2019-03-25T08:14:06.940Z,163.13
2019-03-25T08:15:06.801Z,163.13
2019-03-25T08:16:06.679Z,163.13
2019-03-25T08:17:06.541Z,180.00
2019-03-25T08:18:06.418Z,196.88
2019-03-25T08:19:06.286Z,219.38
2019-03-25T08:20:06.161Z,213.75
2019-03-25T08:21:06.030Z,213.75
2019-03-25T08:22:05.901Z,196.88
2019-03-25T08:23:05.802Z,180.00
2019-03-25T08:24:05.647Z,135.00
2019-03-25T08:25:05.520Z,129.38
2019-03-25T08:26:05.388Z,140.63
2019-03-25T08:27:05.261Z,140.63
2019-03-25T08:28:05.137Z,151.88
2019-03-25T08:29:05.003Z,163.13
2019-03-25T08:30:04.881Z,151.88
2019-03-25T08:31:04.749Z,146.25
2019-03-25T08:32:04.623Z,157.50
2019-03-25T08:33:04.498Z,163.13
2019-03-25T08:34:04.362Z,157.50
2019-03-25T08:35:04.236Z,157.50
2019-03-25T08:36:04.104Z,174.38
2019-03-25T08:37:04.452Z,208.13
2019-03-25T08:38:03.853Z,213.75
2019-03-25T08:39:03.724Z,213.75
2019-03-25T08:40:03.595Z,208.13
2019-03-25T08:41:03.468Z,202.50
2019-03-25T08:42:03.337Z,180.00
2019-03-25T08:43:03.207Z,163.13
2019-03-25T08:44:03.081Z,163.13
2019-03-25T08:45:02.954Z,168.75
2019-03-25T08:46:02.824Z,180.00
2019-03-25T08:47:02.698Z,185.63
2019-03-25T08:48:02.567Z,185.63
2019-03-25T08:49:02.439Z,202.50
2019-03-25T08:50:02.313Z,168.75
2019-03-25T08:51:02.186Z,146.25
2019-03-25T08:52:02.052Z,146.25
2019-03-25T08:53:01.926Z,146.25
2019-03-25T08:54:01.800Z,163.13
2019-03-25T08:55:01.669Z,230.63
2019-03-25T08:56:01.581Z,225.00
2019-03-25T08:57:01.411Z,270.00
2019-03-25T08:58:11.517Z,275.63
2019-03-25T08:59:01.152Z,270.00
2019-03-25T09:00:01.025Z,219.38
2019-03-25T09:01:00.897Z,202.50
2019-03-25T09:02:00.771Z,236.25
2019-03-25T09:03:00.651Z,264.38
2019-03-25T09:04:00.512Z,309.38
2019-03-25T09:05:00.418Z,360.00
2019-03-25T09:06:00.255Z,309.38
2019-03-25T09:07:00.126Z,281.25
2019-03-25T09:08:00.008Z,320.63
2019-03-25T09:08:59.871Z,337.50
2019-03-25T09:09:59.744Z,326.25
2019-03-25T09:10:59.616Z,236.25
2019-03-25T09:11:59.487Z,208.13
2019-03-25T09:12:59.362Z,180.00
2019-03-25T09:13:59.241Z,174.38
2019-03-25T09:14:59.106Z,157.50
2019-03-25T09:15:58.980Z,146.25
2019-03-25T09:17:00.544Z,135.00
2019-03-25T09:17:58.725Z,135.00
2019-03-25T09:18:58.596Z,151.88
2019-03-25T09:19:58.466Z,185.63
2019-03-25T09:20:58.339Z,191.25
2019-03-25T09:21:58.214Z,174.38
2019-03-25T09:22:58.084Z,157.50
2019-03-25T09:23:57.961Z,151.88
2019-03-25T09:24:57.830Z,191.25
2019-03-25T09:25:57.703Z,191.25
2019-03-25T09:26:57.573Z,196.88
2019-03-25T09:27:57.448Z,213.75
2019-03-25T09:28:57.321Z,225.00
2019-03-25T09:29:57.191Z,264.38
2019-03-25T09:30:57.062Z,292.50
2019-03-25T09:31:56.938Z,303.75
2019-03-25T09:32:56.812Z,298.13
2019-03-25T09:33:56.680Z,303.75
2019-03-25T09:34:56.549Z,326.25
2019-03-25T09:35:56.462Z,354.38
2019-03-25T09:36:56.296Z,388.13
2019-03-25T09:37:56.170Z,399.38
2019-03-25T09:38:56.042Z,354.38
2019-03-25T09:39:55.920Z,343.13
2019-03-25T09:40:55.789Z,337.50
2019-03-25T09:41:55.677Z,331.88
2019-03-25T09:42:55.536Z,331.88
2019-03-25T09:43:55.413Z,354.38
2019-03-25T09:44:55.287Z,365.63
2019-03-25T09:45:55.163Z,382.50
2019-03-25T09:46:55.034Z,382.50
2019-03-25T09:47:54.910Z,298.13
2019-03-25T09:48:54.782Z,270.00
2019-03-25T09:49:54.657Z,286.88
2019-03-25T09:50:54.532Z,320.63
2019-03-25T09:51:54.406Z,331.88
2019-03-25T09:52:54.282Z,286.88
2019-03-25T09:53:54.154Z,258.75
2019-03-25T09:54:54.030Z,247.50
2019-03-25T09:55:53.904Z,253.13
2019-03-25T09:56:53.779Z,264.38
2019-03-25T09:57:53.649Z,286.88
2019-03-25T09:58:53.525Z,331.88
2019-03-25T09:59:53.410Z,365.63
2019-03-25T10:00:53.270Z,371.25
2019-03-25T10:01:53.153Z,320.63
2019-03-25T10:02:53.020Z,309.38
2019-03-25T10:03:52.893Z,286.88
2019-03-25T10:04:52.787Z,298.13
2019-03-25T10:05:52.641Z,309.38
2019-03-25T10:06:52.514Z,309.38
2019-03-25T10:07:52.388Z,331.88
2019-03-25T10:08:52.262Z,337.50
2019-03-25T10:09:52.136Z,326.25
2019-03-25T10:10:52.012Z,337.50
2019-03-25T10:11:51.882Z,320.63
2019-03-25T10:12:51.761Z,303.75
2019-03-25T10:13:51.635Z,371.25
2019-03-25T10:14:51.507Z,433.13
2019-03-25T10:15:51.378Z,455.63
2019-03-25T10:16:51.254Z,433.13
2019-03-25T10:17:51.129Z,478.13
2019-03-25T10:18:51.001Z,444.38
2019-03-25T10:19:50.874Z,410.63
2019-03-25T10:20:50.747Z,371.25
2019-03-25T10:21:50.623Z,376.88
2019-03-25T10:22:50.502Z,331.88
2019-03-25T10:23:50.385Z,303.75
2019-03-25T10:24:50.246Z,253.13
2019-03-25T10:25:50.122Z,241.88
2019-03-25T10:26:49.996Z,185.63
2019-03-25T10:27:49.873Z,174.38
2019-03-25T10:28:49.752Z,174.38
2019-03-25T10:29:49.620Z,174.38
2019-03-25T10:30:49.499Z,180.00
2019-03-25T10:31:49.385Z,185.63
2019-03-25T10:32:49.247Z,191.25
2019-03-25T10:33:49.124Z,202.50
2019-03-25T10:34:48.997Z,236.25
2019-03-25T10:35:48.875Z,281.25
2019-03-25T10:36:48.751Z,326.25
2019-03-25T10:37:48.625Z,315.00
2019-03-25T10:38:48.497Z,292.50
2019-03-25T10:39:48.372Z,331.88
2019-03-25T10:40:48.248Z,309.38
2019-03-25T10:41:48.124Z,230.63
2019-03-25T10:42:47.998Z,236.25
2019-03-25T10:43:47.870Z,298.13
2019-03-25T10:44:47.746Z,315.00
2019-03-25T10:45:47.627Z,371.25
2019-03-25T10:46:47.496Z,388.13
2019-03-25T10:47:47.375Z,354.38
2019-03-25T10:48:47.247Z,331.88
2019-03-25T10:49:47.123Z,298.13
2019-03-25T10:50:46.999Z,225.00
2019-03-25T10:51:46.871Z,196.88
2019-03-25T10:52:46.749Z,202.50
2019-03-25T10:53:46.625Z,219.38
2019-03-25T10:54:46.553Z,225.00
2019-03-25T10:55:46.372Z,230.63
2019-03-25T10:56:49.256Z,213.75
2019-03-25T10:57:46.120Z,168.75
2019-03-25T10:58:45.998Z,157.50
2019-03-25T10:59:45.870Z,168.75
2019-03-25T11:00:45.753Z,168.75
2019-03-25T11:01:45.621Z,163.13
2019-03-25T11:02:45.502Z,151.88
2019-03-25T11:03:45.367Z,157.50
2019-03-25T11:04:45.242Z,163.13
2019-03-25T11:05:45.116Z,180.00
2019-03-25T11:06:45.034Z,196.88
2019-03-25T11:07:44.872Z,230.63
2019-03-25T11:08:44.738Z,264.38
2019-03-25T11:09:44.613Z,270.00
2019-03-25T11:10:44.487Z,264.38
2019-03-25T11:11:44.367Z,236.25
2019-03-25T11:12:44.246Z,202.50
2019-03-25T11:13:44.113Z,174.38
2019-03-25T11:14:43.983Z,157.50
2019-03-25T11:15:43.859Z,151.88
2019-03-25T11:16:43.730Z,146.25
2019-03-25T11:17:43.604Z,151.88
2019-03-25T11:18:43.478Z,163.13
2019-03-25T11:19:43.350Z,191.25
2019-03-25T11:20:43.223Z,208.13
2019-03-25T11:21:43.094Z,230.63
2019-03-25T11:22:42.974Z,247.50
2019-03-25T11:23:42.840Z,258.75
2019-03-25T11:24:42.720Z,253.13
2019-03-25T11:25:42.586Z,236.25
2019-03-25T11:26:42.459Z,225.00
2019-03-25T11:27:42.332Z,213.75
2019-03-25T11:28:42.208Z,208.13
2019-03-25T11:29:42.078Z,208.13
2019-03-25T11:30:41.951Z,208.13
2019-03-25T11:31:41.826Z,202.50
2019-03-25T11:32:41.697Z,196.88
2019-03-25T11:33:41.571Z,180.00
2019-03-25T11:34:41.444Z,157.50
2019-03-25T11:35:41.311Z,157.50
2019-03-25T11:36:41.185Z,135.00
2019-03-25T11:37:41.057Z,123.75
2019-03-25T11:38:40.928Z,101.25
2019-03-25T11:39:40.802Z,90.00
2019-03-25T11:40:40.678Z,78.75
2019-03-25T11:41:40.544Z,78.75
2019-03-25T11:42:40.416Z,78.75
2019-03-25T11:43:40.293Z,84.38
2019-03-25T11:44:40.162Z,84.38
2019-03-25T11:45:40.035Z,84.38
2019-03-25T11:46:39.908Z,84.38
2019-03-25T11:47:39.779Z,90.00
2019-03-25T11:48:39.651Z,95.63
2019-03-25T11:49:39.520Z,90.00
2019-03-25T11:50:39.392Z,90.00
2019-03-25T11:51:39.265Z,95.63
2019-03-25T11:52:39.138Z,95.63
2019-03-25T11:53:39.007Z,95.63
2019-03-25T11:54:38.880Z,101.25
2019-03-25T11:55:38.767Z,106.88
2019-03-25T11:56:38.623Z,118.13
2019-03-25T11:57:38.520Z,135.00
2019-03-25T11:58:38.371Z,163.13
2019-03-25T11:59:38.236Z,191.25
2019-03-25T12:00:38.109Z,208.13
2019-03-25T12:01:37.982Z,241.88
2019-03-25T12:02:37.850Z,264.38
2019-03-25T12:03:37.727Z,281.25
2019-03-25T12:04:37.597Z,275.63
2019-03-25T12:05:37.467Z,264.38
2019-03-25T12:06:37.337Z,270.00
2019-03-25T12:07:37.207Z,270.00
2019-03-25T12:08:37.080Z,247.50
2019-03-25T12:09:37.091Z,241.88
2019-03-25T12:10:36.819Z,247.50
2019-03-25T12:11:36.694Z,241.88
2019-03-25T12:12:36.564Z,241.88
2019-03-25T12:13:36.435Z,236.25
2019-03-25T12:14:36.311Z,264.38
2019-03-25T12:15:36.177Z,281.25
2019-03-25T12:16:36.049Z,258.75
2019-03-25T12:17:35.921Z,208.13
2019-03-25T12:18:35.790Z,185.63
2019-03-25T12:19:35.888Z,180.00
2019-03-25T12:20:35.535Z,174.38
2019-03-25T12:21:35.406Z,168.75
2019-03-25T12:22:35.275Z,146.25
2019-03-25T12:23:35.258Z,135.00
2019-03-25T12:24:35.018Z,129.38
2019-03-25T12:25:34.890Z,123.75
2019-03-25T12:26:34.764Z,123.75
2019-03-25T12:27:34.650Z,123.75
2019-03-25T12:28:34.505Z,123.75
2019-03-25T12:29:34.379Z,129.38
2019-03-25T12:30:34.248Z,135.00
2019-03-25T12:31:34.116Z,146.25
2019-03-25T12:32:33.990Z,151.88
2019-03-25T12:33:33.864Z,163.13
2019-03-25T12:34:33.798Z,168.75
2019-03-25T12:35:34.142Z,180.00
2019-03-25T12:36:33.473Z,174.38
2019-03-25T12:37:33.352Z,174.38
2019-03-25T12:38:33.215Z,185.63
2019-03-25T12:39:33.083Z,202.50
2019-03-25T12:40:33.260Z,225.00
2019-03-25T12:41:32.831Z,253.13
2019-03-25T12:42:32.699Z,264.38
2019-03-25T12:43:32.569Z,236.25
2019-03-25T12:44:32.446Z,196.88
2019-03-25T12:45:32.314Z,174.38
2019-03-25T12:46:32.185Z,163.13
2019-03-25T12:47:32.064Z,157.50
2019-03-25T12:48:31.926Z,157.50
2019-03-25T12:49:31.797Z,163.13
2019-03-25T12:50:31.673Z,191.25